sensor_id;sensor_type;location;lat;lon;timestamp;temperature;humidity
37478;DHT22;23334;54.316;10.182;2023-04-19T00:00:05;3.90;99.90
37478;DHT22;23334;54.316;10.182;2023-04-19T00:02:34;3.90;99.90
37478;DHT22;23334;54.316;10.182;2023-04-19T00:05:00;3.80;99.90
37478;DHT22;23334;54.316;10.182;2023-04-19T00:09:52;3.70;99.90
37478;DHT22;23334;54.316;10.182;2023-04-19T00:14:43;3.50;99.90
37478;DHT22;23334;54.316;10.182;2023-04-19T00:22:01;3.50;99.90
37478;DHT22;23334;54.316;10.182;2023-04-19T00:29:19;3.90;99.90
37478;DHT22;23334;54.316;10.182;2023-04-19T00:36:36;4.20;99.90
37478;DHT22;23334;54.316;10.182;2023-04-19T00:46:20;4.40;99.90
37478;DHT22;23334;54.316;10.182;2023-04-19T00:48:47;4.30;99.90
37478;DHT22;23334;54.316;10.182;2023-04-19T00:51:12;4.30;99.90
37478;DHT22;23334;54.316;10.182;2023-04-19T00:53:39;4.40;99.90
37478;DHT22;23334;54.316;10.182;2023-04-19T00:58:31;4.40;99.90
37478;DHT22;23334;54.316;10.182;2023-04-19T01:03:24;4.40;99.90
37478;DHT22;23334;54.316;10.182;2023-04-19T01:08:17;4.40;99.90
37478;DHT22;23334;54.316;10.182;2023-04-19T01:22:53;4.00;99.90
37478;DHT22;23334;54.316;10.182;2023-04-19T01:25:18;4.00;99.90
37478;DHT22;23334;54.316;10.182;2023-04-19T01:30:10;3.90;99.90
37478;DHT22;23334;54.316;10.182;2023-04-19T01:39:54;3.60;99.90
37478;DHT22;23334;54.316;10.182;2023-04-19T01:44:45;3.40;99.90
37478;DHT22;23334;54.316;10.182;2023-04-19T01:49:36;3.30;99.90
37478;DHT22;23334;54.316;10.182;2023-04-19T01:59:20;3.10;99.90
37478;DHT22;23334;54.316;10.182;2023-04-19T02:09:03;3.10;99.90
37478;DHT22;23334;54.316;10.182;2023-04-19T02:23:39;2.90;99.90
37478;DHT22;23334;54.316;10.182;2023-04-19T02:26:04;2.90;99.90
37478;DHT22;23334;54.316;10.182;2023-04-19T02:30:57;2.90;99.90
37478;DHT22;23334;54.316;10.182;2023-04-19T02:33:25;2.80;99.90
37478;DHT22;23334;54.316;10.182;2023-04-19T02:38:17;2.80;99.90
37478;DHT22;23334;54.316;10.182;2023-04-19T02:48:01;2.70;99.90
37478;DHT22;23334;54.316;10.182;2023-04-19T03:00:11;2.60;99.90
37478;DHT22;23334;54.316;10.182;2023-04-19T03:12:22;2.70;99.90
37478;DHT22;23334;54.316;10.182;2023-04-19T03:14:48;2.80;99.90
37478;DHT22;23334;54.316;10.182;2023-04-19T03:17:13;2.70;99.90
37478;DHT22;23334;54.316;10.182;2023-04-19T03:24:31;3.10;99.90
37478;DHT22;23334;54.316;10.182;2023-04-19T03:31:49;3.20;99.90
37478;DHT22;23334;54.316;10.182;2023-04-19T03:43:58;3.50;99.90
37478;DHT22;23334;54.316;10.182;2023-04-19T03:46:24;3.50;99.90
37478;DHT22;23334;54.316;10.182;2023-04-19T03:48:50;3.50;99.90
37478;DHT22;23334;54.316;10.182;2023-04-19T04:01:01;3.50;99.90
37478;DHT22;23334;54.316;10.182;2023-04-19T04:13:11;3.80;99.90
37478;DHT22;23334;54.316;10.182;2023-04-19T04:18:03;3.90;99.90
37478;DHT22;23334;54.316;10.182;2023-04-19T04:22:56;4.00;99.90
37478;DHT22;23334;54.316;10.182;2023-04-19T04:27:51;3.90;99.90
37478;DHT22;23334;54.316;10.182;2023-04-19T04:30:17;3.90;99.90
37478;DHT22;23334;54.316;10.182;2023-04-19T04:40:02;4.10;99.90
37478;DHT22;23334;54.316;10.182;2023-04-19T04:42:31;4.00;99.90
37478;DHT22;23334;54.316;10.182;2023-04-19T04:54:42;4.40;99.90
37478;DHT22;23334;54.316;10.182;2023-04-19T05:11:43;5.00;99.90
37478;DHT22;23334;54.316;10.182;2023-04-19T05:14:09;5.10;99.90
37478;DHT22;23334;54.316;10.182;2023-04-19T05:19:00;5.30;99.90
37478;DHT22;23334;54.316;10.182;2023-04-19T05:28:44;5.90;99.90
37478;DHT22;23334;54.316;10.182;2023-04-19T05:33:36;6.20;99.90
37478;DHT22;23334;54.316;10.182;2023-04-19T05:40:54;6.50;99.90
37478;DHT22;23334;54.316;10.182;2023-04-19T05:45:46;6.90;99.90
37478;DHT22;23334;54.316;10.182;2023-04-19T05:55:30;9.10;99.90
37478;DHT22;23334;54.316;10.182;2023-04-19T06:02:47;11.50;99.90
37478;DHT22;23334;54.316;10.182;2023-04-19T06:10:05;14.70;99.90
37478;DHT22;23334;54.316;10.182;2023-04-19T06:12:31;16.20;99.90
37478;DHT22;23334;54.316;10.182;2023-04-19T06:14:56;17.40;97.40
37478;DHT22;23334;54.316;10.182;2023-04-19T06:19:53;18.70;91.80
37478;DHT22;23334;54.316;10.182;2023-04-19T06:22:20;19.40;80.90
37478;DHT22;23334;54.316;10.182;2023-04-19T06:24:46;20.30;77.20
37478;DHT22;23334;54.316;10.182;2023-04-19T06:56:44;19.90;55.60
37478;DHT22;23334;54.316;10.182;2023-04-19T06:59:12;19.60;54.70
37478;DHT22;23334;54.316;10.182;2023-04-19T07:13:49;20.80;54.50
37478;DHT22;23334;54.316;10.182;2023-04-19T07:28:29;23.20;49.60
37478;DHT22;23334;54.316;10.182;2023-04-19T07:33:22;24.70;48.40
37478;DHT22;23334;54.316;10.182;2023-04-19T07:50:26;24.10;46.40
37478;DHT22;23334;54.316;10.182;2023-04-19T07:57:45;24.10;45.80
37478;DHT22;23334;54.316;10.182;2023-04-19T08:00:13;24.20;45.70
37478;DHT22;23334;54.316;10.182;2023-04-19T08:02:44;24.80;45.50
37478;DHT22;23334;54.316;10.182;2023-04-19T08:10:03;24.40;42.80
37478;DHT22;23334;54.316;10.182;2023-04-19T08:12:29;23.80;43.00
37478;DHT22;23334;54.316;10.182;2023-04-19T08:14:54;23.10;42.20
37478;DHT22;23334;54.316;10.182;2023-04-19T08:17:20;23.30;42.90
37478;DHT22;23334;54.316;10.182;2023-04-19T08:19:48;23.10;43.60
37478;DHT22;23334;54.316;10.182;2023-04-19T08:22:14;24.30;43.90
37478;DHT22;23334;54.316;10.182;2023-04-19T08:24:41;25.40;41.80
37478;DHT22;23334;54.316;10.182;2023-04-19T08:29:32;25.60;41.10
37478;DHT22;23334;54.316;10.182;2023-04-19T08:34:24;25.00;39.70
37478;DHT22;23334;54.316;10.182;2023-04-19T08:36:49;24.50;39.80
37478;DHT22;23334;54.316;10.182;2023-04-19T08:39:15;24.10;41.90
37478;DHT22;23334;54.316;10.182;2023-04-19T08:41:40;24.60;41.90
37478;DHT22;23334;54.316;10.182;2023-04-19T08:44:06;25.40;48.30
37478;DHT22;23334;54.316;10.182;2023-04-19T08:51:28;25.60;41.00
37478;DHT22;23334;54.316;10.182;2023-04-19T08:53:55;25.00;38.80
37478;DHT22;23334;54.316;10.182;2023-04-19T08:56:22;25.00;38.80
37478;DHT22;23334;54.316;10.182;2023-04-19T08:58:47;24.30;39.10
37478;DHT22;23334;54.316;10.182;2023-04-19T09:01:13;24.80;40.40
37478;DHT22;23334;54.316;10.182;2023-04-19T09:03:42;25.40;40.30
37478;DHT22;23334;54.316;10.182;2023-04-19T09:06:11;25.40;39.80
37478;DHT22;23334;54.316;10.182;2023-04-19T09:08:37;25.70;38.70
37478;DHT22;23334;54.316;10.182;2023-04-19T09:13:31;26.60;37.80
37478;DHT22;23334;54.316;10.182;2023-04-19T09:18:28;27.50;37.20
37478;DHT22;23334;54.316;10.182;2023-04-19T09:20:54;27.50;36.40
37478;DHT22;23334;54.316;10.182;2023-04-19T09:23:24;27.30;36.60
37478;DHT22;23334;54.316;10.182;2023-04-19T09:25:57;27.80;36.70
37478;DHT22;23334;54.316;10.182;2023-04-19T09:28:25;27.80;37.20
37478;DHT22;23334;54.316;10.182;2023-04-19T09:30:51;27.50;36.70
37478;DHT22;23334;54.316;10.182;2023-04-19T09:33:34;27.30;36.30
37478;DHT22;23334;54.316;10.182;2023-04-19T09:36:00;25.40;36.20
37478;DHT22;23334;54.316;10.182;2023-04-19T09:38:26;24.00;36.10
37478;DHT22;23334;54.316;10.182;2023-04-19T09:40:52;22.60;37.50
37478;DHT22;23334;54.316;10.182;2023-04-19T09:43:29;23.30;37.50
37478;DHT22;23334;54.316;10.182;2023-04-19T09:45:54;24.40;38.00
37478;DHT22;23334;54.316;10.182;2023-04-19T09:48:22;25.20;38.00
37478;DHT22;23334;54.316;10.182;2023-04-19T09:50:54;25.00;36.20
37478;DHT22;23334;54.316;10.182;2023-04-19T09:53:21;25.70;36.00
37478;DHT22;23334;54.316;10.182;2023-04-19T09:58:14;25.20;35.20
37478;DHT22;23334;54.316;10.182;2023-04-19T10:00:41;24.40;37.60
37478;DHT22;23334;54.316;10.182;2023-04-19T10:03:09;24.10;38.80
37478;DHT22;23334;54.316;10.182;2023-04-19T10:05:40;24.60;36.80
37478;DHT22;23334;54.316;10.182;2023-04-19T10:08:12;24.50;37.60
37478;DHT22;23334;54.316;10.182;2023-04-19T10:10:41;24.10;38.40
37478;DHT22;23334;54.316;10.182;2023-04-19T10:13:15;24.20;37.70
37478;DHT22;23334;54.316;10.182;2023-04-19T10:15:43;23.70;37.80
37478;DHT22;23334;54.316;10.182;2023-04-19T10:18:09;23.90;37.50
37478;DHT22;23334;54.316;10.182;2023-04-19T10:20:49;24.10;39.30
37478;DHT22;23334;54.316;10.182;2023-04-19T10:23:16;24.70;37.60
37478;DHT22;23334;54.316;10.182;2023-04-19T10:25:45;24.50;37.70
37478;DHT22;23334;54.316;10.182;2023-04-19T10:28:11;23.90;38.40
37478;DHT22;23334;54.316;10.182;2023-04-19T10:30:52;25.20;35.90
37478;DHT22;23334;54.316;10.182;2023-04-19T10:33:25;23.90;36.50
37478;DHT22;23334;54.316;10.182;2023-04-19T10:35:55;22.10;37.20
37478;DHT22;23334;54.316;10.182;2023-04-19T10:38:43;21.00;39.10
37478;DHT22;23334;54.316;10.182;2023-04-19T10:41:12;19.70;41.00
37478;DHT22;23334;54.316;10.182;2023-04-19T10:44:07;18.80;42.60
37478;DHT22;23334;54.316;10.182;2023-04-19T10:49:01;17.70;39.90
37478;DHT22;23334;54.316;10.182;2023-04-19T10:51:31;16.80;41.80
37478;DHT22;23334;54.316;10.182;2023-04-19T10:53:59;16.70;43.50
37478;DHT22;23334;54.316;10.182;2023-04-19T11:01:41;15.80;44.70
37478;DHT22;23334;54.316;10.182;2023-04-19T11:09:32;15.30;47.40
37478;DHT22;23334;54.316;10.182;2023-04-19T11:12:09;15.20;49.80
37478;DHT22;23334;54.316;10.182;2023-04-19T11:14:40;15.50;47.50
37478;DHT22;23334;54.316;10.182;2023-04-19T11:17:36;15.00;46.80
37478;DHT22;23334;54.316;10.182;2023-04-19T11:20:05;15.20;47.80
37478;DHT22;23334;54.316;10.182;2023-04-19T11:22:39;15.20;47.40
37478;DHT22;23334;54.316;10.182;2023-04-19T11:25:17;14.80;45.60
37478;DHT22;23334;54.316;10.182;2023-04-19T11:27:45;14.70;45.20
37478;DHT22;23334;54.316;10.182;2023-04-19T11:30:16;14.30;48.00
37478;DHT22;23334;54.316;10.182;2023-04-19T11:32:45;14.40;51.00
37478;DHT22;23334;54.316;10.182;2023-04-19T11:35:11;14.10;46.40
37478;DHT22;23334;54.316;10.182;2023-04-19T11:37:38;14.50;46.70
37478;DHT22;23334;54.316;10.182;2023-04-19T11:40:05;14.60;46.50
37478;DHT22;23334;54.316;10.182;2023-04-19T11:42:31;14.70;47.30
37478;DHT22;23334;54.316;10.182;2023-04-19T11:44:57;14.50;46.70
37478;DHT22;23334;54.316;10.182;2023-04-19T11:47:25;14.50;45.90
37478;DHT22;23334;54.316;10.182;2023-04-19T11:49:54;15.90;48.30
37478;DHT22;23334;54.316;10.182;2023-04-19T11:52:24;13.90;51.40
37478;DHT22;23334;54.316;10.182;2023-04-19T11:54:53;14.30;46.70
37478;DHT22;23334;54.316;10.182;2023-04-19T11:57:29;14.30;47.40
37478;DHT22;23334;54.316;10.182;2023-04-19T12:00:03;14.40;48.80
37478;DHT22;23334;54.316;10.182;2023-04-19T12:02:40;14.20;48.10
37478;DHT22;23334;54.316;10.182;2023-04-19T12:05:08;14.40;46.30
37478;DHT22;23334;54.316;10.182;2023-04-19T12:07:34;14.30;46.60
37478;DHT22;23334;54.316;10.182;2023-04-19T12:10:08;14.40;46.80
37478;DHT22;23334;54.316;10.182;2023-04-19T12:12:34;14.50;45.70
37478;DHT22;23334;54.316;10.182;2023-04-19T12:15:00;14.40;45.70
37478;DHT22;23334;54.316;10.182;2023-04-19T12:17:25;14.30;40.10
37478;DHT22;23334;54.316;10.182;2023-04-19T12:19:51;16.10;44.00
37478;DHT22;23334;54.316;10.182;2023-04-19T12:22:18;14.20;43.10
37478;DHT22;23334;54.316;10.182;2023-04-19T12:24:51;14.00;42.60
37478;DHT22;23334;54.316;10.182;2023-04-19T12:27:17;14.10;41.80
37478;DHT22;23334;54.316;10.182;2023-04-19T12:29:43;14.20;41.90
37478;DHT22;23334;54.316;10.182;2023-04-19T12:32:09;13.80;38.70
37478;DHT22;23334;54.316;10.182;2023-04-19T12:34:35;13.60;40.30
37478;DHT22;23334;54.316;10.182;2023-04-19T12:37:01;13.90;39.10
37478;DHT22;23334;54.316;10.182;2023-04-19T12:39:28;13.70;38.70
37478;DHT22;23334;54.316;10.182;2023-04-19T12:41:54;13.70;40.90
37478;DHT22;23334;54.316;10.182;2023-04-19T12:44:20;13.90;41.10
37478;DHT22;23334;54.316;10.182;2023-04-19T12:46:45;14.00;41.00
37478;DHT22;23334;54.316;10.182;2023-04-19T12:49:11;14.20;41.50
37478;DHT22;23334;54.316;10.182;2023-04-19T12:51:36;14.00;39.00
37478;DHT22;23334;54.316;10.182;2023-04-19T12:54:02;13.80;50.10
37478;DHT22;23334;54.316;10.182;2023-04-19T12:56:27;13.60;39.00
37478;DHT22;23334;54.316;10.182;2023-04-19T12:58:53;13.60;40.70
37478;DHT22;23334;54.316;10.182;2023-04-19T13:03:44;14.40;41.90
37478;DHT22;23334;54.316;10.182;2023-04-19T13:06:10;13.90;40.10
37478;DHT22;23334;54.316;10.182;2023-04-19T13:08:39;14.10;42.80
37478;DHT22;23334;54.316;10.182;2023-04-19T13:11:04;13.80;40.20
37478;DHT22;23334;54.316;10.182;2023-04-19T13:13:30;13.70;40.00
37478;DHT22;23334;54.316;10.182;2023-04-19T13:15:55;13.70;40.60
37478;DHT22;23334;54.316;10.182;2023-04-19T13:18:21;13.60;39.30
37478;DHT22;23334;54.316;10.182;2023-04-19T13:20:47;13.40;39.10
37478;DHT22;23334;54.316;10.182;2023-04-19T13:23:13;13.40;41.00
37478;DHT22;23334;54.316;10.182;2023-04-19T13:25:38;13.50;40.20
37478;DHT22;23334;54.316;10.182;2023-04-19T13:28:04;13.60;42.00
37478;DHT22;23334;54.316;10.182;2023-04-19T13:30:29;13.60;43.40
37478;DHT22;23334;54.316;10.182;2023-04-19T13:35:20;13.50;45.90
37478;DHT22;23334;54.316;10.182;2023-04-19T13:37:46;13.40;42.60
37478;DHT22;23334;54.316;10.182;2023-04-19T13:40:12;13.20;42.30
37478;DHT22;23334;54.316;10.182;2023-04-19T13:42:37;13.10;42.50
37478;DHT22;23334;54.316;10.182;2023-04-19T13:45:03;13.30;43.10
37478;DHT22;23334;54.316;10.182;2023-04-19T13:47:29;13.20;44.90
37478;DHT22;23334;54.316;10.182;2023-04-19T13:49:54;13.30;42.80
37478;DHT22;23334;54.316;10.182;2023-04-19T13:52:20;13.20;43.10
37478;DHT22;23334;54.316;10.182;2023-04-19T13:54:47;13.20;41.90
37478;DHT22;23334;54.316;10.182;2023-04-19T13:57:13;12.90;42.50
37478;DHT22;23334;54.316;10.182;2023-04-19T13:59:38;13.20;43.40
37478;DHT22;23334;54.316;10.182;2023-04-19T14:02:04;13.10;42.00
37478;DHT22;23334;54.316;10.182;2023-04-19T14:04:30;13.10;41.80
37478;DHT22;23334;54.316;10.182;2023-04-19T14:06:55;13.10;40.90
37478;DHT22;23334;54.316;10.182;2023-04-19T14:09:21;13.00;40.50
37478;DHT22;23334;54.316;10.182;2023-04-19T14:11:46;12.90;41.10
37478;DHT22;23334;54.316;10.182;2023-04-19T14:14:13;12.80;41.20
37478;DHT22;23334;54.316;10.182;2023-04-19T14:16:39;12.90;42.20
37478;DHT22;23334;54.316;10.182;2023-04-19T14:19:04;12.90;41.80
37478;DHT22;23334;54.316;10.182;2023-04-19T14:21:30;12.80;41.60
37478;DHT22;23334;54.316;10.182;2023-04-19T14:23:55;13.00;46.60
37478;DHT22;23334;54.316;10.182;2023-04-19T14:26:21;12.90;40.70
37478;DHT22;23334;54.316;10.182;2023-04-19T14:28:47;12.80;41.20
37478;DHT22;23334;54.316;10.182;2023-04-19T14:31:12;12.80;42.80
37478;DHT22;23334;54.316;10.182;2023-04-19T14:33:38;12.90;42.60
37478;DHT22;23334;54.316;10.182;2023-04-19T14:36:03;13.00;43.10
37478;DHT22;23334;54.316;10.182;2023-04-19T14:38:29;13.00;43.60
37478;DHT22;23334;54.316;10.182;2023-04-19T14:40:54;12.90;42.90
37478;DHT22;23334;54.316;10.182;2023-04-19T14:43:20;12.90;43.50
37478;DHT22;23334;54.316;10.182;2023-04-19T14:45:47;12.90;42.50
37478;DHT22;23334;54.316;10.182;2023-04-19T14:48:14;12.60;54.20
37478;DHT22;23334;54.316;10.182;2023-04-19T14:50:39;12.80;43.60
37478;DHT22;23334;54.316;10.182;2023-04-19T14:53:05;12.80;44.30
37478;DHT22;23334;54.316;10.182;2023-04-19T14:55:30;12.70;43.30
37478;DHT22;23334;54.316;10.182;2023-04-19T14:57:56;12.70;41.90
37478;DHT22;23334;54.316;10.182;2023-04-19T15:00:21;12.60;42.60
37478;DHT22;23334;54.316;10.182;2023-04-19T15:02:47;12.70;43.50
37478;DHT22;23334;54.316;10.182;2023-04-19T15:05:13;12.50;45.10
37478;DHT22;23334;54.316;10.182;2023-04-19T15:07:40;12.70;44.00
37478;DHT22;23334;54.316;10.182;2023-04-19T15:10:06;12.80;44.30
37478;DHT22;23334;54.316;10.182;2023-04-19T15:12:31;12.70;42.60
37478;DHT22;23334;54.316;10.182;2023-04-19T15:14:57;12.60;43.00
37478;DHT22;23334;54.316;10.182;2023-04-19T15:17:22;12.60;44.30
37478;DHT22;23334;54.316;10.182;2023-04-19T15:19:48;12.60;43.90
37478;DHT22;23334;54.316;10.182;2023-04-19T15:29:31;12.20;52.20
37478;DHT22;23334;54.316;10.182;2023-04-19T15:31:56;12.50;44.90
37478;DHT22;23334;54.316;10.182;2023-04-19T15:34:22;12.50;44.10
37478;DHT22;23334;54.316;10.182;2023-04-19T15:36:49;12.40;44.70
37478;DHT22;23334;54.316;10.182;2023-04-19T15:39:15;12.40;44.80
37478;DHT22;23334;54.316;10.182;2023-04-19T15:41:40;12.20;45.30
37478;DHT22;23334;54.316;10.182;2023-04-19T15:44:06;12.20;50.80
37478;DHT22;23334;54.316;10.182;2023-04-19T15:46:31;12.20;45.50
37478;DHT22;23334;54.316;10.182;2023-04-19T15:48:56;12.20;44.60
37478;DHT22;23334;54.316;10.182;2023-04-19T15:51:22;12.20;45.20
37478;DHT22;23334;54.316;10.182;2023-04-19T15:53:47;12.40;47.50
37478;DHT22;23334;54.316;10.182;2023-04-19T15:56:13;12.20;46.50
37478;DHT22;23334;54.316;10.182;2023-04-19T15:58:38;12.30;45.80
37478;DHT22;23334;54.316;10.182;2023-04-19T16:01:09;12.20;45.90
37478;DHT22;23334;54.316;10.182;2023-04-19T16:06:03;12.20;49.10
37478;DHT22;23334;54.316;10.182;2023-04-19T16:08:28;12.00;52.70
37478;DHT22;23334;54.316;10.182;2023-04-19T16:13:20;12.20;62.60
37478;DHT22;23334;54.316;10.182;2023-04-19T16:15:45;11.90;52.30
37478;DHT22;23334;54.316;10.182;2023-04-19T16:18:11;11.90;51.50
37478;DHT22;23334;54.316;10.182;2023-04-19T16:20:40;11.80;51.10
37478;DHT22;23334;54.316;10.182;2023-04-19T16:23:06;11.80;51.80
37478;DHT22;23334;54.316;10.182;2023-04-19T16:25:32;11.80;52.50
37478;DHT22;23334;54.316;10.182;2023-04-19T16:27:58;11.70;53.10
37478;DHT22;23334;54.316;10.182;2023-04-19T16:30:24;11.70;54.00
37478;DHT22;23334;54.316;10.182;2023-04-19T16:32:53;11.70;55.30
37478;DHT22;23334;54.316;10.182;2023-04-19T16:35:18;11.60;57.30
37478;DHT22;23334;54.316;10.182;2023-04-19T16:37:43;11.60;58.40
37478;DHT22;23334;54.316;10.182;2023-04-19T16:40:10;11.60;60.80
37478;DHT22;23334;54.316;10.182;2023-04-19T16:42:37;11.60;64.70
37478;DHT22;23334;54.316;10.182;2023-04-19T16:45:03;11.50;66.70
37478;DHT22;23334;54.316;10.182;2023-04-19T16:47:29;11.40;68.40
37478;DHT22;23334;54.316;10.182;2023-04-19T16:49:58;11.30;71.50
37478;DHT22;23334;54.316;10.182;2023-04-19T16:52:25;11.30;75.00
37478;DHT22;23334;54.316;10.182;2023-04-19T16:54:51;11.10;76.40
37478;DHT22;23334;54.316;10.182;2023-04-19T16:57:17;11.30;73.60
37478;DHT22;23334;54.316;10.182;2023-04-19T16:59:42;11.20;75.90
37478;DHT22;23334;54.316;10.182;2023-04-19T17:02:08;11.20;77.40
37478;DHT22;23334;54.316;10.182;2023-04-19T17:04:35;11.20;80.10
37478;DHT22;23334;54.316;10.182;2023-04-19T17:07:00;11.20;81.30
37478;DHT22;23334;54.316;10.182;2023-04-19T17:09:26;11.10;81.60
37478;DHT22;23334;54.316;10.182;2023-04-19T17:11:51;11.00;83.50
37478;DHT22;23334;54.316;10.182;2023-04-19T17:14:17;11.00;84.90
37478;DHT22;23334;54.316;10.182;2023-04-19T17:16:42;11.00;85.00
37478;DHT22;23334;54.316;10.182;2023-04-19T17:19:08;10.90;86.20
37478;DHT22;23334;54.316;10.182;2023-04-19T17:21:33;10.90;86.80
37478;DHT22;23334;54.316;10.182;2023-04-19T17:23:59;10.90;92.90
37478;DHT22;23334;54.316;10.182;2023-04-19T17:26:24;10.90;86.40
37478;DHT22;23334;54.316;10.182;2023-04-19T17:28:50;10.80;86.00
37478;DHT22;23334;54.316;10.182;2023-04-19T17:31:15;10.80;84.70
37478;DHT22;23334;54.316;10.182;2023-04-19T17:33:40;10.80;85.30
37478;DHT22;23334;54.316;10.182;2023-04-19T17:36:06;10.80;85.20
37478;DHT22;23334;54.316;10.182;2023-04-19T17:38:32;10.70;84.90
37478;DHT22;23334;54.316;10.182;2023-04-19T17:40:58;9.50;90.50
37478;DHT22;23334;54.316;10.182;2023-04-19T17:45:50;10.60;91.90
37478;DHT22;23334;54.316;10.182;2023-04-19T17:50:42;10.50;91.10
37478;DHT22;23334;54.316;10.182;2023-04-19T17:53:07;10.50;89.00
37478;DHT22;23334;54.316;10.182;2023-04-19T17:55:33;10.20;90.50
37478;DHT22;23334;54.316;10.182;2023-04-19T17:57:58;10.40;93.50
37478;DHT22;23334;54.316;10.182;2023-04-19T18:00:24;10.30;90.50
37478;DHT22;23334;54.316;10.182;2023-04-19T18:02:49;10.20;90.80
37478;DHT22;23334;54.316;10.182;2023-04-19T18:05:15;10.00;92.10
37478;DHT22;23334;54.316;10.182;2023-04-19T18:10:07;10.20;94.00
37478;DHT22;23334;54.316;10.182;2023-04-19T18:12:32;10.10;92.00
37478;DHT22;23334;54.316;10.182;2023-04-19T18:14:58;10.00;92.20
37478;DHT22;23334;54.316;10.182;2023-04-19T18:17:24;9.90;93.40
37478;DHT22;23334;54.316;10.182;2023-04-19T18:22:15;9.60;96.30
37478;DHT22;23334;54.316;10.182;2023-04-19T18:24:40;9.70;95.20
37478;DHT22;23334;54.316;10.182;2023-04-19T18:27:08;9.60;95.80
37478;DHT22;23334;54.316;10.182;2023-04-19T18:29:33;9.60;96.40
37478;DHT22;23334;54.316;10.182;2023-04-19T18:31:59;9.40;96.80
37478;DHT22;23334;54.316;10.182;2023-04-19T18:34:25;9.30;97.90
37478;DHT22;23334;54.316;10.182;2023-04-19T18:36:58;9.30;98.40
37478;DHT22;23334;54.316;10.182;2023-04-19T18:39:24;9.00;99.90
37478;DHT22;23334;54.316;10.182;2023-04-19T18:41:50;9.10;99.90
37478;DHT22;23334;54.316;10.182;2023-04-19T18:44:16;9.10;99.90
37478;DHT22;23334;54.316;10.182;2023-04-19T18:46:41;9.00;99.90
37478;DHT22;23334;54.316;10.182;2023-04-19T18:49:07;8.90;99.90
37478;DHT22;23334;54.316;10.182;2023-04-19T18:51:32;8.80;99.90
37478;DHT22;23334;54.316;10.182;2023-04-19T18:53:58;8.60;99.90
37478;DHT22;23334;54.316;10.182;2023-04-19T18:56:23;8.60;99.90
37478;DHT22;23334;54.316;10.182;2023-04-19T18:58:49;8.50;99.90
37478;DHT22;23334;54.316;10.182;2023-04-19T19:01:14;8.40;99.90
37478;DHT22;23334;54.316;10.182;2023-04-19T19:03:40;8.20;99.90
37478;DHT22;23334;54.316;10.182;2023-04-19T19:06:05;8.10;99.90
37478;DHT22;23334;54.316;10.182;2023-04-19T19:08:31;8.00;99.90
37478;DHT22;23334;54.316;10.182;2023-04-19T19:10:56;7.90;99.90
37478;DHT22;23334;54.316;10.182;2023-04-19T19:13:22;7.70;99.90
37478;DHT22;23334;54.316;10.182;2023-04-19T19:15:47;7.60;99.90
37478;DHT22;23334;54.316;10.182;2023-04-19T19:18:13;7.50;99.90
37478;DHT22;23334;54.316;10.182;2023-04-19T19:23:04;7.60;99.90
37478;DHT22;23334;54.316;10.182;2023-04-19T19:25:30;7.50;99.90
37478;DHT22;23334;54.316;10.182;2023-04-19T19:27:57;7.30;99.90
37478;DHT22;23334;54.316;10.182;2023-04-19T19:30:24;7.40;99.90
37478;DHT22;23334;54.316;10.182;2023-04-19T19:32:50;7.40;99.90
37478;DHT22;23334;54.316;10.182;2023-04-19T19:35:16;7.30;99.90
37478;DHT22;23334;54.316;10.182;2023-04-19T19:37:43;7.30;99.90
37478;DHT22;23334;54.316;10.182;2023-04-19T19:40:10;7.30;99.90
37478;DHT22;23334;54.316;10.182;2023-04-19T19:42:36;7.20;99.90
37478;DHT22;23334;54.316;10.182;2023-04-19T19:45:05;7.30;99.90
37478;DHT22;23334;54.316;10.182;2023-04-19T19:47:31;7.30;99.90
37478;DHT22;23334;54.316;10.182;2023-04-19T19:50:00;7.30;99.90
37478;DHT22;23334;54.316;10.182;2023-04-19T19:52:28;6.40;99.90
37478;DHT22;23334;54.316;10.182;2023-04-19T19:54:56;7.40;99.90
37478;DHT22;23334;54.316;10.182;2023-04-19T19:57:23;7.40;99.90
37478;DHT22;23334;54.316;10.182;2023-04-19T19:59:49;7.50;99.90
37478;DHT22;23334;54.316;10.182;2023-04-19T20:02:14;7.30;99.90
37478;DHT22;23334;54.316;10.182;2023-04-19T20:04:40;7.10;99.90
37478;DHT22;23334;54.316;10.182;2023-04-19T20:07:06;7.00;99.90
37478;DHT22;23334;54.316;10.182;2023-04-19T20:09:33;7.50;99.90
37478;DHT22;23334;54.316;10.182;2023-04-19T20:11:59;7.20;99.90
37478;DHT22;23334;54.316;10.182;2023-04-19T20:14:25;7.10;99.90
37478;DHT22;23334;54.316;10.182;2023-04-19T20:16:51;7.00;99.90
37478;DHT22;23334;54.316;10.182;2023-04-19T20:19:17;7.00;99.90
37478;DHT22;23334;54.316;10.182;2023-04-19T20:21:43;6.70;99.90
37478;DHT22;23334;54.316;10.182;2023-04-19T20:24:09;7.00;99.90
37478;DHT22;23334;54.316;10.182;2023-04-19T20:26:36;6.90;99.90
37478;DHT22;23334;54.316;10.182;2023-04-19T20:29:01;6.90;99.90
37478;DHT22;23334;54.316;10.182;2023-04-19T20:38:49;7.70;99.90
37478;DHT22;23334;54.316;10.182;2023-04-19T20:41:15;7.30;99.90
37478;DHT22;23334;54.316;10.182;2023-04-19T20:43:46;7.00;99.90
37478;DHT22;23334;54.316;10.182;2023-04-19T20:46:11;7.30;99.90
37478;DHT22;23334;54.316;10.182;2023-04-19T20:48:37;7.30;99.90
37478;DHT22;23334;54.316;10.182;2023-04-19T20:51:02;7.20;99.90
37478;DHT22;23334;54.316;10.182;2023-04-19T20:53:28;7.00;99.90
37478;DHT22;23334;54.316;10.182;2023-04-19T20:55:54;7.00;99.90
37478;DHT22;23334;54.316;10.182;2023-04-19T20:58:19;6.80;99.90
37478;DHT22;23334;54.316;10.182;2023-04-19T21:00:45;6.80;99.90
37478;DHT22;23334;54.316;10.182;2023-04-19T21:03:10;6.70;99.90
37478;DHT22;23334;54.316;10.182;2023-04-19T21:05:36;6.50;99.90
37478;DHT22;23334;54.316;10.182;2023-04-19T21:08:02;6.50;99.90
37478;DHT22;23334;54.316;10.182;2023-04-19T21:10:28;7.10;99.90
37478;DHT22;23334;54.316;10.182;2023-04-19T21:12:53;6.30;99.90
37478;DHT22;23334;54.316;10.182;2023-04-19T21:15:19;6.30;99.90
37478;DHT22;23334;54.316;10.182;2023-04-19T21:17:44;6.10;99.90
37478;DHT22;23334;54.316;10.182;2023-04-19T21:20:11;6.10;99.90
37478;DHT22;23334;54.316;10.182;2023-04-19T21:22:39;6.00;99.90
37478;DHT22;23334;54.316;10.182;2023-04-19T21:25:05;5.90;99.90
37478;DHT22;23334;54.316;10.182;2023-04-19T21:27:32;6.00;99.90
37478;DHT22;23334;54.316;10.182;2023-04-19T21:30:02;3.70;99.90
37478;DHT22;23334;54.316;10.182;2023-04-19T21:32:28;9.60;99.90
37478;DHT22;23334;54.316;10.182;2023-04-19T21:34:54;5.90;99.90
37478;DHT22;23334;54.316;10.182;2023-04-19T21:37:20;5.90;99.90
37478;DHT22;23334;54.316;10.182;2023-04-19T21:39:47;6.00;99.90
37478;DHT22;23334;54.316;10.182;2023-04-19T21:42:12;5.90;99.90